Time;durP1;ratioP1;P1;durP2;ratioP2;P2;SDS_P1;SDS_P2;PMS_P1;PMS_P2;Temp;Humidity;BMP_temperature;BMP_pressure;BME280_temperature;BME280_humidity;BME280_pressure;Samples;Min_cycle;Max_cycle;Signal;HPM_P1;HPM_P2
2023/06/13 00:00:54;;;;;;;5.13;2.00;;;;;;;17.07;46.48;100983.69;6032842;28;20521;-66
2023/06/13 00:03:51;;;;;;;5.35;2.28;;;;;;;16.91;48.18;100987.34;6048710;28;20434;-66
2023/06/13 00:06:47;;;;;;;5.53;2.10;;;;;;;16.76;46.83;100983.78;6013497;28;20031;-66
2023/06/13 00:09:43;;;;;;;4.70;2.35;;;;;;;16.82;47.45;100999.16;6019855;28;20489;-66
2023/06/13 00:12:38;;;;;;;3.55;1.85;;;;;;;16.72;47.00;101000.38;6033441;28;20031;-66
2023/06/13 00:15:35;;;;;;;5.85;2.05;;;;;;;16.74;47.62;100983.13;6026546;28;20033;-66
2023/06/13 00:18:30;;;;;;;4.10;2.17;;;;;;;16.74;46.90;100976.94;6042231;28;20485;-66
2023/06/13 00:21:26;;;;;;;5.30;2.13;;;;;;;16.58;47.11;100983.25;6034395;28;20048;-66
2023/06/13 00:24:22;;;;;;;3.73;2.07;;;;;;;16.52;47.64;100992.78;6036094;28;20032;-67
2023/06/13 00:27:17;;;;;;;4.03;1.88;;;;;;;16.65;47.36;100987.72;6030671;28;20275;-66
2023/06/13 00:30:12;;;;;;;6.97;2.27;;;;;;;16.38;47.43;100977.50;6034917;28;20034;-66
2023/06/13 00:33:08;;;;;;;3.93;2.30;;;;;;;16.51;47.04;100980.44;6036180;28;20345;-66
2023/06/13 00:36:03;;;;;;;4.57;2.03;;;;;;;16.39;47.57;100989.88;6034903;28;20433;-66
2023/06/13 00:38:58;;;;;;;6.68;1.90;;;;;;;16.26;48.09;100973.56;6029365;28;20030;-66
2023/06/13 00:41:54;;;;;;;3.17;1.67;;;;;;;16.14;48.29;100972.31;6024817;28;20109;-66
2023/06/13 00:44:49;;;;;;;4.40;2.13;;;;;;;16.34;48.06;100986.03;6041966;28;20412;-66
2023/06/13 00:47:45;;;;;;;3.10;1.87;;;;;;;16.22;48.96;100974.94;6038509;28;20033;-66
2023/06/13 00:50:41;;;;;;;4.47;2.20;;;;;;;16.23;48.16;100984.59;6026035;28;20386;-66
2023/06/13 00:53:36;;;;;;;4.07;2.00;;;;;;;16.11;48.29;100972.66;6046053;28;20026;-66
2023/06/13 00:56:32;;;;;;;3.80;2.30;;;;;;;16.26;49.12;100980.75;6034553;28;20870;-66
2023/06/13 00:59:28;;;;;;;3.92;2.60;;;;;;;16.58;48.74;100961.81;6030247;28;20393;-66
2023/06/13 01:02:24;;;;;;;6.03;1.98;;;;;;;16.27;48.29;100972.56;6044171;28;20069;-66
2023/06/13 01:05:21;;;;;;;3.78;2.00;;;;;;;16.24;48.32;100967.56;6038488;28;20359;-66
2023/06/13 01:08:19;;;;;;;4.45;1.95;;;;;;;15.93;48.94;100982.75;6037717;28;20026;-66
2023/06/13 01:11:24;;;;;;;5.07;2.15;;;;;;;15.72;49.63;100963.78;6031493;28;20018;-66
2023/06/13 01:14:36;;;;;;;6.50;1.95;;;;;;;16.03;50.75;100983.38;6037226;28;20470;-66
2023/06/13 01:17:36;;;;;;;5.93;2.03;;;;;;;16.30;52.34;100958.81;6034162;28;20029;-66
2023/06/13 01:20:32;;;;;;;4.50;1.95;;;;;;;15.99;49.07;100960.66;6034728;28;20042;-66
2023/06/13 01:24:05;;;;;;;3.78;2.08;;;;;;;15.76;50.50;100970.47;6023313;28;20030;-66
2023/06/13 01:27:01;;;;;;;4.57;1.80;;;;;;;15.81;51.56;100978.81;6041160;28;20030;-66
2023/06/13 01:29:56;;;;;;;5.38;2.00;;;;;;;16.17;51.59;100955.88;6046245;28;20360;-66
2023/06/13 01:32:52;;;;;;;3.00;1.77;;;;;;;16.37;51.09;100967.78;6029476;28;20033;-66
2023/06/13 01:35:47;;;;;;;2.80;1.67;;;;;;;15.83;52.64;100966.09;6054655;28;20069;-66
2023/06/13 01:38:43;;;;;;;5.35;2.10;;;;;;;15.58;51.53;100956.47;6031673;28;20039;-66
2023/06/13 01:41:38;;;;;;;4.13;2.00;;;;;;;15.66;51.67;100969.81;6027494;28;20044;-66
2023/06/13 01:44:33;;;;;;;6.63;2.30;;;;;;;15.36;51.57;100958.84;6031060;28;20037;-66
2023/06/13 01:47:50;;;;;;;5.20;2.10;;;;;;;15.46;53.38;100974.75;6035373;28;20113;-66
2023/06/13 01:50:50;;;;;;;7.00;2.20;;;;;;;15.58;53.19;100964.50;6025117;28;20042;-66
2023/06/13 01:53:52;;;;;;;3.67;1.70;;;;;;;15.71;53.12;100960.28;6043535;28;20033;-66
2023/06/13 01:56:55;;;;;;;4.63;1.98;;;;;;;15.69;52.74;100973.00;6032912;28;20030;-66
2023/06/13 01:59:55;;;;;;;5.05;2.00;;;;;;;15.99;51.87;100966.84;6035682;28;20037;-66
2023/06/13 02:02:51;;;;;;;3.63;1.80;;;;;;;15.31;52.04;100961.22;6039141;28;20034;-66
2023/06/13 02:05:47;;;;;;;3.92;2.10;;;;;;;14.83;54.35;100955.94;6036312;28;20381;-66
2023/06/13 02:08:44;;;;;;;4.65;1.80;;;;;;;15.03;54.00;100967.91;6033690;28;20049;-67
2023/06/13 02:11:39;;;;;;;3.72;1.80;;;;;;;14.75;53.88;100970.13;6024988;28;20037;-66
2023/06/13 02:14:36;;;;;;;4.93;1.77;;;;;;;14.86;54.39;100961.78;6022274;28;20065;-66
2023/06/13 02:17:31;;;;;;;9.10;2.53;;;;;;;15.04;54.51;100942.06;6032756;28;20036;-66
2023/06/13 02:20:27;;;;;;;4.07;2.20;;;;;;;15.19;56.48;100962.56;6039109;28;20030;-66
2023/06/13 02:23:23;;;;;;;5.93;2.20;;;;;;;15.41;53.94;100969.03;6025110;28;20030;-66
2023/06/13 02:26:19;;;;;;;5.18;1.83;;;;;;;15.23;54.08;100957.72;6036824;28;20752;-66
2023/06/13 02:29:15;;;;;;;7.38;2.25;;;;;;;15.26;53.28;100962.72;6035359;28;20029;-66
2023/06/13 02:32:10;;;;;;;3.88;2.08;;;;;;;15.34;52.76;100970.72;6034054;28;20062;-66
2023/06/13 02:35:09;;;;;;;3.83;2.08;;;;;;;14.90;55.04;100967.59;6038007;28;20033;-66
2023/06/13 02:38:06;;;;;;;6.35;1.95;;;;;;;14.91;54.03;100963.94;6030853;28;20042;-66
2023/06/13 02:41:02;;;;;;;3.47;1.83;;;;;;;15.00;54.02;100957.56;6025831;28;20030;-66
2023/06/13 02:43:58;;;;;;;3.92;1.98;;;;;;;15.01;54.18;100953.91;6032849;28;20036;-66
2023/06/13 02:46:53;;;;;;;5.17;1.80;;;;;;;15.46;55.84;100970.22;6038059;28;20034;-66
2023/06/13 02:49:49;;;;;;;5.50;2.13;;;;;;;14.90;55.51;100967.59;6034131;28;20840;-66
2023/06/13 02:52:44;;;;;;;4.13;2.10;;;;;;;14.67;54.18;100966.63;6035993;28;20480;-66
2023/06/13 02:55:44;;;;;;;5.03;1.97;;;;;;;14.62;56.04;100969.75;6046479;28;20034;-66
2023/06/13 02:58:40;;;;;;;4.32;2.45;;;;;;;14.81;54.79;100973.97;6017879;28;20031;-66
2023/06/13 03:01:35;;;;;;;5.33;2.10;;;;;;;14.72;57.23;100958.94;6025563;28;20160;-66
2023/06/13 03:04:31;;;;;;;5.07;1.70;;;;;;;14.74;55.81;100971.13;6038651;28;20030;-66
2023/06/13 03:07:31;;;;;;;4.68;2.22;;;;;;;14.69;56.69;100953.94;6029637;28;20179;-66
2023/06/13 03:10:26;;;;;;;6.07;2.40;;;;;;;15.19;58.43;100967.91;6033060;28;20034;-66
2023/06/13 03:13:22;;;;;;;7.23;2.53;;;;;;;15.09;55.16;100967.25;6034552;28;20072;-66
2023/06/13 03:16:21;;;;;;;6.93;2.20;;;;;;;14.70;55.63;100971.63;6020725;28;20023;-66
2023/06/13 03:19:17;;;;;;;5.45;2.38;;;;;;;14.32;57.00;100972.25;6041628;28;20038;-66
2023/06/13 03:22:14;;;;;;;5.40;2.38;;;;;;;14.00;57.84;100963.09;6019489;28;20381;-65
2023/06/13 03:25:10;;;;;;;5.38;2.05;;;;;;;13.70;58.98;100953.00;6028398;28;20114;-65
2023/06/13 03:28:05;;;;;;;6.95;2.25;;;;;;;13.68;59.50;100973.66;6042362;28;20042;-66
2023/06/13 03:31:01;;;;;;;6.53;2.87;;;;;;;13.76;59.45;100970.19;6022018;28;20038;-65
2023/06/13 03:33:56;;;;;;;5.73;2.33;;;;;;;13.84;59.52;100959.53;6033808;28;20280;-65
2023/06/13 03:36:51;;;;;;;7.03;1.87;;;;;;;14.05;57.92;100942.13;6033688;28;20879;-65
2023/06/13 03:39:47;;;;;;;4.60;1.95;;;;;;;13.85;59.76;100948.75;6026348;28;20053;-65
2023/06/13 03:42:42;;;;;;;4.50;2.43;;;;;;;14.10;61.22;100958.50;6028103;28;20383;-67
2023/06/13 03:45:38;;;;;;;4.78;2.30;;;;;;;14.14;58.26;100965.16;6043629;28;20124;-65
2023/06/13 03:48:33;;;;;;;6.53;2.60;;;;;;;13.76;58.65;100949.69;6030457;28;20034;-65
2023/06/13 03:51:29;;;;;;;7.17;2.33;;;;;;;13.93;59.46;100966.59;6034512;28;20117;-65
2023/06/13 03:54:24;;;;;;;4.57;1.97;;;;;;;14.06;58.25;100957.13;6045813;28;20029;-65
2023/06/13 03:57:19;;;;;;;3.93;1.90;;;;;;;14.20;57.43;100964.50;6031756;28;20288;-65
2023/06/13 04:00:15;;;;;;;5.20;2.60;;;;;;;14.14;58.47;100965.16;6039880;28;20045;-67
2023/06/13 04:03:10;;;;;;;7.13;2.28;;;;;;;13.92;58.53;100956.91;6035329;28;20030;-67
2023/06/13 04:06:06;;;;;;;8.53;3.67;;;;;;;14.19;59.08;100965.50;6027754;28;20102;-65
2023/06/13 04:09:04;;;;;;;5.47;2.40;;;;;;;14.01;57.59;100959.47;6027907;28;20034;-67
2023/06/13 04:11:59;;;;;;;5.45;2.10;;;;;;;13.91;58.03;100942.78;6040122;28;20069;-67
2023/06/13 04:14:55;;;;;;;4.97;2.40;;;;;;;13.93;58.73;100945.25;6019588;28;20043;-66
2023/06/13 04:17:52;;;;;;;4.38;2.17;;;;;;;13.69;59.49;100954.00;6040237;28;20036;-65
2023/06/13 04:20:47;;;;;;;8.45;2.67;;;;;;;13.93;58.54;100971.91;6038414;28;20034;-65
2023/06/13 04:23:43;;;;;;;4.10;2.50;;;;;;;14.22;57.28;100943.84;6031451;28;20060;-65
2023/06/13 04:26:38;;;;;;;5.83;2.37;;;;;;;14.40;56.48;100949.09;6040087;28;20274;-66
2023/06/13 04:29:34;;;;;;;5.37;2.23;;;;;;;14.66;56.55;100964.94;6038040;28;20470;-65
2023/06/13 04:32:33;;;;;;;4.60;2.00;;;;;;;14.98;57.28;100966.75;6030209;28;20041;-65
2023/06/13 04:35:28;;;;;;;4.07;2.03;;;;;;;15.16;56.09;100956.75;6044285;28;20023;-65
2023/06/13 04:38:24;;;;;;;5.43;2.60;;;;;;;15.59;54.39;100952.81;6040978;28;20022;-65
2023/06/13 04:41:19;;;;;;;3.67;2.15;;;;;;;15.97;51.65;100957.34;6035872;28;20036;-65
2023/06/13 04:44:15;;;;;;;5.50;2.40;;;;;;;15.40;55.07;100960.19;6041592;28;20033;-66
2023/06/13 04:47:10;;;;;;;5.67;2.17;;;;;;;15.80;55.41;100966.44;6051661;28;20025;-66
2023/06/13 04:50:06;;;;;;;4.47;2.73;;;;;;;15.65;54.09;100965.50;6050748;28;20597;-66
2023/06/13 04:53:02;;;;;;;4.18;2.60;;;;;;;15.78;53.11;100953.25;6047192;28;20072;-65
2023/06/13 04:55:58;;;;;;;5.30;3.00;;;;;;;16.16;51.23;100964.91;6046440;28;20386;-66
2023/06/13 04:58:55;;;;;;;5.18;2.60;;;;;;;16.39;52.73;100960.41;6031878;28;20030;-66
2023/06/13 05:01:51;;;;;;;5.30;2.67;;;;;;;16.51;50.75;100964.38;6048681;28;20049;-67
2023/06/13 05:04:48;;;;;;;7.05;2.47;;;;;;;16.52;50.89;100949.94;6040340;28;20478;-65
2023/06/13 05:07:43;;;;;;;4.95;2.75;;;;;;;16.14;51.89;100963.44;6021881;28;20089;-67
2023/06/13 05:10:38;;;;;;;6.97;2.77;;;;;;;16.28;50.42;100950.13;6034522;28;20065;-68
2023/06/13 05:13:34;;;;;;;8.20;3.07;;;;;;;16.16;51.33;100972.94;6029308;28;20031;-68
2023/06/13 05:16:29;;;;;;;3.97;2.80;;;;;;;16.54;50.48;100969.41;6025908;28;20034;-66
2023/06/13 05:19:25;;;;;;;4.78;2.45;;;;;;;16.61;50.89;100975.69;6026885;28;20327;-66
2023/06/13 05:22:20;;;;;;;5.67;2.40;;;;;;;17.35;50.60;100963.31;6036047;28;20022;-66
2023/06/13 05:25:16;;;;;;;8.77;2.87;;;;;;;17.60;49.85;100948.66;6039594;28;20567;-66
2023/06/13 05:28:11;;;;;;;7.30;3.00;;;;;;;17.44;49.12;100948.81;6050714;28;20261;-66
2023/06/13 05:31:06;;;;;;;4.33;2.30;;;;;;;17.68;48.64;100961.97;6046314;28;20484;-66
2023/06/13 05:34:02;;;;;;;4.30;2.33;;;;;;;18.15;47.02;100948.09;6049033;28;20025;-68
2023/06/13 05:36:57;;;;;;;4.47;2.53;;;;;;;18.01;47.67;100966.91;6043571;28;20026;-66
2023/06/13 05:39:52;;;;;;;8.97;2.67;;;;;;;18.08;47.90;100943.66;6044363;28;20273;-67
2023/06/13 05:42:47;;;;;;;4.43;2.30;;;;;;;18.43;46.25;100957.06;6047146;28;20029;-67
2023/06/13 05:45:43;;;;;;;5.27;2.30;;;;;;;18.73;46.83;100946.22;6043959;28;20045;-66
2023/06/13 05:48:38;;;;;;;6.45;2.65;;;;;;;18.29;47.42;100952.56;6042571;28;20339;-66
2023/06/13 05:51:33;;;;;;;6.50;2.50;;;;;;;18.24;46.96;100948.78;6034315;28;20037;-66
2023/06/13 05:54:29;;;;;;;6.70;2.47;;;;;;;18.22;48.27;100935.56;6040598;28;20025;-68
2023/06/13 05:57:24;;;;;;;5.43;3.20;;;;;;;18.50;46.72;100941.06;6033538;28;20397;-67
2023/06/13 06:00:20;;;;;;;8.82;2.67;;;;;;;18.99;45.71;100944.63;6026610;28;20037;-66
2023/06/13 06:03:15;;;;;;;4.23;2.57;;;;;;;19.18;45.46;100942.25;6034926;28;21470;-66
2023/06/13 06:06:11;;;;;;;3.80;2.60;;;;;;;19.86;42.88;100939.56;6035227;28;20037;-65
2023/06/13 06:09:06;;;;;;;5.97;2.50;;;;;;;19.43;45.12;100940.81;6033090;28;20483;-68
2023/06/13 06:12:02;;;;;;;5.68;2.38;;;;;;;19.96;43.49;100934.63;6037544;28;20273;-65
2023/06/13 06:14:57;;;;;;;4.10;2.40;;;;;;;20.43;42.81;100932.94;6024433;28;20049;-66
2023/06/13 06:17:52;;;;;;;7.87;2.60;;;;;;;20.73;42.87;100920.75;6022344;28;20641;-66
2023/06/13 06:20:48;;;;;;;4.65;2.35;;;;;;;20.00;42.88;100922.41;6021396;28;20383;-65
2023/06/13 06:23:43;;;;;;;3.00;1.90;;;;;;;20.12;42.47;100928.88;6025656;28;20037;-65
2023/06/13 06:26:38;;;;;;;6.87;2.60;;;;;;;19.75;42.98;100942.00;6027045;28;20034;-66
2023/06/13 06:29:34;;;;;;;5.97;2.67;;;;;;;19.30;44.73;100927.22;6034091;28;20274;-66
2023/06/13 06:32:29;;;;;;;5.00;2.45;;;;;;;19.98;43.27;100937.94;6030814;28;20496;-65
2023/06/13 06:35:24;;;;;;;4.72;2.13;;;;;;;19.68;44.07;100925.81;6023095;28;20035;-65
2023/06/13 06:38:20;;;;;;;5.63;2.47;;;;;;;19.19;45.18;100938.53;6018049;28;20505;-65
2023/06/13 06:41:16;;;;;;;6.70;2.40;;;;;;;20.45;41.74;100934.38;6033014;28;20033;-65
2023/06/13 06:44:11;;;;;;;4.88;2.35;;;;;;;20.13;42.88;100941.34;6025472;28;20030;-65
2023/06/13 06:47:06;;;;;;;12.20;2.90;;;;;;;20.10;43.42;100936.34;6027228;28;20422;-65
2023/06/13 06:50:02;;;;;;;5.90;2.53;;;;;;;20.60;42.23;100936.91;6028353;28;20033;-67
2023/06/13 06:52:57;;;;;;;5.18;2.20;;;;;;;19.97;43.72;100927.41;6021623;28;20025;-66
2023/06/13 06:55:52;;;;;;;7.97;2.13;;;;;;;20.17;43.44;100939.88;6019564;28;20034;-66
2023/06/13 06:58:48;;;;;;;6.97;2.47;;;;;;;21.03;41.83;100938.16;6025097;28;20030;-66
2023/06/13 07:01:43;;;;;;;5.53;2.57;;;;;;;19.95;44.26;100940.22;6027737;28;20417;-66
2023/06/13 07:04:38;;;;;;;5.32;3.03;;;;;;;20.87;42.38;100927.78;6028001;28;20618;-66
2023/06/13 07:07:35;;;;;;;5.37;2.60;;;;;;;21.26;41.58;100930.47;6020553;28;20041;-65
2023/06/13 07:10:30;;;;;;;4.53;2.50;;;;;;;20.68;42.87;100944.78;6022153;28;20273;-66
2023/06/13 07:13:26;;;;;;;3.70;2.38;;;;;;;21.42;41.93;100941.84;6020100;28;20049;-66
2023/06/13 07:16:21;;;;;;;3.10;1.95;;;;;;;21.83;41.84;100928.84;6027250;28;20030;-65
2023/06/13 07:19:17;;;;;;;3.97;2.40;;;;;;;21.63;41.35;100925.41;6027195;28;20049;-65
2023/06/13 07:22:12;;;;;;;8.10;2.60;;;;;;;21.53;41.47;100941.19;6030399;28;20040;-66
2023/06/13 07:25:07;;;;;;;6.47;2.60;;;;;;;22.12;41.19;100927.50;6022871;28;20047;-66
2023/06/13 07:28:03;;;;;;;4.33;2.63;;;;;;;22.11;39.72;100934.78;6025372;28;20038;-66
2023/06/13 07:30:58;;;;;;;7.35;2.83;;;;;;;22.03;40.28;100929.63;6026220;28;20276;-66
2023/06/13 07:33:54;;;;;;;5.93;2.92;;;;;;;22.35;39.71;100941.28;6022500;28;20084;-66
2023/06/13 07:36:49;;;;;;;5.90;2.90;;;;;;;22.07;39.91;100921.94;6031726;28;20042;-66
2023/06/13 07:39:44;;;;;;;7.03;2.87;;;;;;;22.62;39.27;100928.41;6036580;28;20034;-67
2023/06/13 07:42:40;;;;;;;6.20;2.90;;;;;;;22.40;40.31;100939.59;6034651;28;20366;-65
2023/06/13 07:45:35;;;;;;;8.43;2.63;;;;;;;22.21;39.00;100934.31;6030272;28;20276;-65
2023/06/13 07:48:30;;;;;;;7.93;3.23;;;;;;;23.11;38.98;100944.69;6029305;28;20038;-65
2023/06/13 07:51:26;;;;;;;5.97;2.75;;;;;;;22.92;39.95;100943.00;6028023;28;20085;-66
2023/06/13 07:54:21;;;;;;;5.03;2.83;;;;;;;22.68;38.66;100933.00;6029442;28;20061;-66
2023/06/13 07:57:17;;;;;;;6.97;3.25;;;;;;;22.99;39.04;100930.25;6027316;28;20492;-66
2023/06/13 08:00:14;;;;;;;6.47;2.60;;;;;;;23.13;38.32;100934.47;6024017;28;20038;-65
2023/06/13 08:03:10;;;;;;;7.10;2.95;;;;;;;22.81;37.97;100927.47;6019308;28;20474;-66
2023/06/13 08:06:05;;;;;;;5.07;3.15;;;;;;;23.18;37.98;100925.69;6021078;28;20037;-66
2023/06/13 08:09:00;;;;;;;6.73;2.77;;;;;;;24.34;36.62;100929.13;6022334;28;20053;-66
2023/06/13 08:11:57;;;;;;;6.70;2.90;;;;;;;23.43;38.38;100919.19;6013612;28;20031;-66
2023/06/13 08:14:53;;;;;;;4.95;2.85;;;;;;;23.70;37.60;100920.56;6019519;28;20034;-66
2023/06/13 08:17:48;;;;;;;12.23;3.97;;;;;;;23.84;37.69;100934.75;6015312;28;20118;-67
2023/06/13 08:20:43;;;;;;;6.43;3.00;;;;;;;23.14;38.68;100928.00;6026508;28;20273;-66
2023/06/13 08:23:39;;;;;;;7.53;3.17;;;;;;;23.69;38.60;100921.63;6026822;28;20036;-67
2023/06/13 08:26:34;;;;;;;6.60;2.70;;;;;;;24.32;37.60;100931.25;6036721;28;21571;-67
2023/06/13 08:29:29;;;;;;;9.73;3.10;;;;;;;23.76;37.85;100923.41;6033833;28;20037;-67
2023/06/13 08:32:25;;;;;;;5.07;3.10;;;;;;;23.87;37.47;100922.63;6045310;28;20030;-67
2023/06/13 08:35:20;;;;;;;5.90;3.27;;;;;;;23.55;38.40;100930.13;6034288;28;20045;-67
2023/06/13 08:38:15;;;;;;;8.65;3.30;;;;;;;23.49;39.01;100926.44;6030911;28;20354;-66
2023/06/13 08:41:11;;;;;;;4.60;2.83;;;;;;;23.83;38.80;100929.59;6033439;28;20031;-67
2023/06/13 08:44:07;;;;;;;9.43;2.85;;;;;;;24.47;37.84;100929.75;6051526;28;21555;-67
2023/06/13 08:47:02;;;;;;;4.72;2.88;;;;;;;24.24;37.86;100924.28;6032949;28;20030;-67
2023/06/13 08:50:00;;;;;;;6.40;3.42;;;;;;;24.62;36.00;100911.16;6046729;28;20096;-66
2023/06/13 08:52:56;;;;;;;6.47;3.38;;;;;;;24.42;37.55;100920.66;6041406;28;20065;-67
2023/06/13 08:55:51;;;;;;;7.10;3.20;;;;;;;23.99;38.75;100907.28;6026289;28;20058;-67
2023/06/13 08:58:51;;;;;;;7.88;3.33;;;;;;;24.40;37.33;100904.63;6037297;28;20030;-67
2023/06/13 09:01:46;;;;;;;;;;;;;;;24.63;37.49;100915.53;6037665;28;20030;-67
2023/06/13 09:04:43;;;;;;;6.90;3.33;;;;;;;24.64;36.75;100911.78;6029471;28;19914;-67
2023/06/13 09:07:38;;;;;;;6.25;3.17;;;;;;;24.34;36.95;100904.72;6015424;28;20022;-67
2023/06/13 09:10:34;;;;;;;6.47;2.80;;;;;;;24.30;37.12;100920.63;6018116;28;20037;-67
2023/06/13 09:13:31;;;;;;;6.22;3.03;;;;;;;24.49;37.70;100900.50;6038849;28;20026;-67
2023/06/13 09:16:28;;;;;;;7.32;3.38;;;;;;;24.59;37.33;100895.38;6019609;28;20057;-67
2023/06/13 09:19:23;;;;;;;4.90;2.85;;;;;;;25.06;36.30;100900.88;6042485;28;20045;-67
2023/06/13 09:22:19;;;;;;;6.43;3.10;;;;;;;25.31;36.06;100894.09;6026543;28;20030;-69
2023/06/13 09:25:16;;;;;;;7.70;3.20;;;;;;;25.35;35.57;100891.75;6047525;28;20257;-67
2023/06/13 09:28:32;;;;;;;8.32;3.60;;;;;;;25.75;35.43;100887.19;6051453;28;20578;-67
2023/06/13 09:31:29;;;;;;;5.75;3.25;;;;;;;25.43;35.94;100891.38;6027122;28;20093;-67
2023/06/13 09:34:26;;;;;;;5.43;3.05;;;;;;;25.29;35.42;100890.81;6038683;28;20048;-67
2023/06/13 09:37:24;;;;;;;4.75;3.17;;;;;;;25.62;35.06;100889.34;6038280;28;20065;-68
2023/06/13 09:40:21;;;;;;;8.10;3.17;;;;;;;25.13;35.48;100885.28;6034486;28;20096;-67
2023/06/13 09:43:17;;;;;;;7.03;3.10;;;;;;;25.62;35.52;100871.19;6058718;28;20049;-67
2023/06/13 09:46:12;;;;;;;6.00;3.00;;;;;;;25.78;35.12;100873.13;6022432;28;20029;-67
2023/06/13 09:49:08;;;;;;;6.55;3.42;;;;;;;26.11;35.52;100877.00;6038596;28;20358;-67
2023/06/13 09:52:04;;;;;;;10.23;3.53;;;;;;;25.73;34.98;100883.91;6027351;28;20370;-67
2023/06/13 09:54:59;;;;;;;5.75;3.10;;;;;;;25.96;33.62;100869.38;6045459;28;20108;-68
2023/06/13 09:57:55;;;;;;;5.45;3.08;;;;;;;26.34;33.75;100876.91;6043199;28;20029;-68
2023/06/13 10:00:56;;;;;;;8.70;2.88;;;;;;;27.05;31.91;100862.56;6029450;28;20076;-67
2023/06/13 10:03:52;;;;;;;4.93;3.00;;;;;;;27.04;30.27;100856.28;6044954;28;20105;-67
2023/06/13 10:06:47;;;;;;;7.37;3.10;;;;;;;27.24;30.90;100860.38;6041004;28;20054;-67
2023/06/13 10:09:43;;;;;;;6.32;3.17;;;;;;;27.12;29.83;100853.13;6030583;28;20022;-67
2023/06/13 10:12:45;;;;;;;4.82;3.20;;;;;;;26.78;29.84;100856.16;6028482;28;20417;-67
2023/06/13 10:15:45;;;;;;;4.85;3.25;;;;;;;26.87;29.45;100849.22;6021383;28;20057;-67
2023/06/13 10:18:44;;;;;;;6.50;3.22;;;;;;;27.66;28.23;100842.41;6030034;28;20072;-68
2023/06/13 10:21:39;;;;;;;5.05;3.38;;;;;;;27.05;26.00;100847.06;6034091;28;20081;-68
2023/06/13 10:24:36;;;;;;;5.50;3.40;;;;;;;26.44;25.55;100847.97;6045405;28;20029;-67
2023/06/13 10:27:31;;;;;;;6.15;3.28;;;;;;;26.23;26.12;100831.56;6029459;28;20030;-68
2023/06/13 10:30:52;;;;;;;7.00;3.40;;;;;;;26.85;26.21;100843.22;6024975;28;20044;-68
2023/06/13 10:33:52;;;;;;;8.30;3.20;;;;;;;26.73;26.56;100862.34;6041801;28;20026;-67
2023/06/13 10:37:11;;;;;;;6.57;3.50;;;;;;;25.97;26.41;100855.56;6035192;28;20026;-67
2023/06/13 10:40:28;;;;;;;5.57;3.20;;;;;;;25.98;27.91;100845.53;6035727;28;20038;-68
2023/06/13 10:43:30;;;;;;;6.40;3.60;;;;;;;26.48;27.23;100829.25;6050024;28;20030;-67
2023/06/13 10:46:26;;;;;;;6.75;3.70;;;;;;;26.62;26.79;100836.03;6025458;28;20072;-68
2023/06/13 10:49:21;;;;;;;6.13;3.10;;;;;;;27.09;26.02;100828.31;6028342;28;20038;-67
2023/06/13 10:52:18;;;;;;;5.53;3.22;;;;;;;26.65;26.51;100827.38;6032815;28;20273;-67
2023/06/13 10:55:25;;;;;;;7.30;3.30;;;;;;;26.92;25.96;100824.81;6041419;28;20082;-67
2023/06/13 10:58:25;;;;;;;9.23;3.33;;;;;;;27.17;25.63;100823.28;6044331;28;20030;-67
2023/06/13 11:01:28;;;;;;;6.47;3.15;;;;;;;27.27;25.88;100811.66;6040068;28;20113;-67
2023/06/13 11:04:23;;;;;;;7.15;3.63;;;;;;;27.17;25.89;100826.00;6042654;28;20066;-68
2023/06/13 11:07:25;;;;;;;5.20;3.03;;;;;;;26.70;26.25;100824.72;6024902;28;20067;-68
2023/06/13 11:10:23;;;;;;;5.88;3.20;;;;;;;26.91;26.41;100815.81;6024143;28;20049;-67
2023/06/13 11:13:20;;;;;;;4.85;3.45;;;;;;;27.09;25.80;100792.91;6035997;28;20146;-68
2023/06/13 11:16:20;;;;;;;7.60;3.58;;;;;;;27.88;25.42;100802.31;6019017;28;20122;-67
2023/06/13 11:19:17;;;;;;;7.13;3.80;;;;;;;27.23;25.98;100805.09;6038657;28;20092;-67
2023/06/13 11:22:15;;;;;;;6.40;3.25;;;;;;;27.05;26.71;100814.38;6038850;28;20062;-67
2023/06/13 11:25:11;;;;;;;12.27;3.53;;;;;;;27.14;27.14;100790.25;6032772;28;20033;-67
2023/06/13 11:28:06;;;;;;;5.75;3.17;;;;;;;26.28;27.38;100799.03;6031196;28;20462;-67
2023/06/13 11:31:03;;;;;;;6.63;3.17;;;;;;;26.22;27.48;100791.84;6039145;28;20366;-68
2023/06/13 11:34:00;;;;;;;4.75;3.40;;;;;;;26.44;26.88;100784.59;6033701;28;20046;-67
2023/06/13 11:37:02;;;;;;;6.68;3.58;;;;;;;27.11;26.97;100775.25;6034313;28;20117;-67
2023/06/13 11:39:59;;;;;;;6.80;3.10;;;;;;;27.35;26.56;100772.25;6030295;28;20033;-67
2023/06/13 11:42:55;;;;;;;4.68;3.08;;;;;;;28.21;25.70;100774.81;6037147;28;20042;-67
2023/06/13 11:45:59;;;;;;;11.70;4.38;;;;;;;28.23;25.17;100772.66;6033816;28;20038;-68
2023/06/13 11:48:56;;;;;;;6.45;3.72;;;;;;;28.05;25.40;100770.31;6030900;28;20023;-68
2023/06/13 11:51:51;;;;;;;5.50;3.17;;;;;;;27.95;26.07;100762.00;6028859;28;20077;-68
2023/06/13 11:54:50;;;;;;;6.60;2.97;;;;;;;27.60;25.49;100772.56;6040416;28;20376;-67
2023/06/13 11:57:46;;;;;;;4.43;3.15;;;;;;;26.98;26.58;100785.69;6034156;28;20036;-67
2023/06/13 12:00:54;;;;;;;6.40;3.97;;;;;;;27.22;25.71;100772.66;6033688;28;20029;-67
2023/06/13 12:03:50;;;;;;;4.90;3.35;;;;;;;27.36;26.47;100765.75;6029519;28;20026;-67
2023/06/13 12:06:45;;;;;;;7.25;3.10;;;;;;;27.50;26.05;100764.31;6029230;28;20520;-68
2023/06/13 12:09:42;;;;;;;5.87;3.40;;;;;;;27.42;27.34;100772.94;6028406;28;20080;-68
2023/06/13 12:12:37;;;;;;;5.68;3.53;;;;;;;27.27;26.88;100759.91;6038338;28;20279;-68
2023/06/13 12:15:33;;;;;;;5.13;2.93;;;;;;;28.15;26.25;100756.78;6027070;28;20033;-68
2023/06/13 12:18:28;;;;;;;6.00;3.57;;;;;;;28.05;25.70;100753.94;6034572;28;20113;-67
2023/06/13 12:21:28;;;;;;;8.70;3.50;;;;;;;28.61;24.02;100763.38;6031890;28;20043;-68
2023/06/13 12:24:25;;;;;;;4.70;3.40;;;;;;;28.47;26.06;100743.09;6026782;28;20154;-68
2023/06/13 12:27:21;;;;;;;10.57;3.63;;;;;;;28.14;25.36;100746.94;6052622;28;20035;-67
2023/06/13 12:30:17;;;;;;;9.02;4.05;;;;;;;27.32;25.96;100761.84;6030274;28;20101;-67
2023/06/13 12:33:16;;;;;;;8.35;3.30;;;;;;;26.96;27.14;100758.69;6028893;28;20029;-68
2023/06/13 12:36:15;;;;;;;6.10;3.38;;;;;;;26.77;26.84;100742.91;6032400;28;20037;-67
2023/06/13 12:39:12;;;;;;;5.78;3.20;;;;;;;27.62;26.44;100748.59;6024608;28;20041;-67
2023/06/13 12:42:10;;;;;;;9.05;4.03;;;;;;;27.92;25.18;100734.44;6032241;28;20374;-67
2023/06/13 12:45:06;;;;;;;8.75;3.13;;;;;;;28.97;24.95;100723.47;6029016;28;20030;-68
2023/06/13 12:48:02;;;;;;;6.32;3.83;;;;;;;28.74;24.01;100713.81;6029410;28;20452;-68
2023/06/13 12:50:58;;;;;;;7.37;3.60;;;;;;;27.68;24.91;100736.69;6025120;28;20081;-68
2023/06/13 12:54:17;;;;;;;4.82;3.00;;;;;;;27.59;25.11;100713.69;6029343;28;20277;-68
2023/06/13 12:57:15;;;;;;;9.20;3.38;;;;;;;28.13;24.39;100728.91;6030494;28;20026;-67
2023/06/13 13:00:11;;;;;;;4.85;3.03;;;;;;;28.20;24.06;100723.25;6023682;28;20156;-67
2023/06/13 13:03:07;;;;;;;7.88;3.28;;;;;;;28.52;24.56;100728.66;6046158;28;20067;-67
2023/06/13 13:06:03;;;;;;;8.27;3.60;;;;;;;28.30;23.69;100715.97;6034982;28;20761;-67
2023/06/13 13:08:58;;;;;;;5.15;3.20;;;;;;;28.31;23.09;100712.16;6020438;28;20081;-66
2023/06/13 13:11:55;;;;;;;6.37;3.93;;;;;;;28.83;22.65;100705.94;6033651;28;20458;-66
2023/06/13 13:14:50;;;;;;;6.90;3.72;;;;;;;28.99;22.91;100687.69;6029699;28;20293;-67
2023/06/13 13:17:46;;;;;;;6.97;4.10;;;;;;;29.44;21.94;100702.31;6026086;28;20431;-67
2023/06/13 13:20:41;;;;;;;6.73;3.63;;;;;;;28.77;22.89;100696.88;6034029;28;20285;-68
2023/06/13 13:23:36;;;;;;;11.15;3.53;;;;;;;29.42;22.59;100693.56;6034951;28;20025;-66
2023/06/13 13:26:32;;;;;;;6.63;3.73;;;;;;;29.00;22.38;100684.66;6029754;28;20118;-67
2023/06/13 13:29:28;;;;;;;9.70;3.75;;;;;;;29.66;22.80;100676.63;6025084;28;20034;-66
2023/06/13 13:32:23;;;;;;;5.20;3.23;;;;;;;28.65;22.88;100670.88;6029426;28;20476;-68
2023/06/13 13:35:20;;;;;;;8.25;3.95;;;;;;;28.20;23.19;100668.69;6033191;28;20100;-67
2023/06/13 13:38:15;;;;;;;6.32;3.83;;;;;;;28.34;23.42;100673.44;6024796;28;20034;-68
2023/06/13 13:41:10;;;;;;;5.90;3.23;;;;;;;29.03;22.57;100695.06;6024608;28;20144;-67